Date,TemperatureHighF,TemperatureAvgF,TemperatureLowF,DewpointHighF,DewpointAvgF,DewpointLowF,HumidityHigh,HumidityAvg,HumidityLow,PressureMaxIn,PressureMinIn,WindSpeedMaxMPH,WindSpeedAvgMPH,GustSpeedMaxMPH,PrecipitationSumIn
2013-1-1,44.2,39.2,30.3,31.4,27.5,16.7,70,62,54,30.02,29.84,11,1,11,0.28
2013-1-2,37.4,29.7,25.1,18.2,15.7,12.0,69,56,43,30.19,29.99,11,1,11,0.00
2013-1-3,39.3,30.0,24.9,22.0,18.3,16.2,72,62,47,30.20,30.08,9,0,9,0.28
2013-1-4,41.1,33.7,27.5,25.3,22.2,19.4,71,63,50,30.12,29.98,14,1,14,0.28
2013-1-5,45.1,35.2,29.1,26.5,22.8,18.8,73,61,46,30.31,30.04,8,0,8,0.28
2013-1-6,48.3,39.3,33.6,36.9,30.5,24.9,86,71,55,30.25,29.98,7,0,7,0.04
2013-1-7,49.4,38.1,29.4,33.1,27.2,23.9,82,66,45,30.41,30.06,10,1,10,0.00
2013-1-8,51.6,37.4,27.3,36.5,29.3,23.4,86,74,53,30.45,30.35,12,1,12,0.28
2013-1-9,54.8,44.3,32.5,41.0,35.8,28.4,86,73,58,30.40,30.14,8,1,8,0.00
2013-1-10,52.1,43.5,36.5,33.8,28.4,25.1,71,56,40,30.54,30.26,16,1,16,0.28
2013-1-11,41.5,40.1,36.6,33.5,31.0,28.0,75,70,65,30.53,30.44,9,0,9,0.00
2013-1-13,51.4,50.7,49.6,48.9,48.1,46.5,91,91,89,51.76,30.01,8,0,8,0.00
2013-1-14,61.1,52.2,42.0,56.8,45.6,32.0,92,79,52,30.28,29.93,11,1,11,0.02
2013-1-15,42.0,40.2,37.9,36.2,31.7,29.1,85,71,65,30.34,30.19,6,0,6,0.28
2013-1-16,43.5,38.4,35.7,40.5,35.1,31.5,90,88,78,30.21,29.79,12,0,12,0.84
2013-1-17,46.5,40.8,38.1,35.8,33.3,29.9,89,75,56,30.10,29.93,9,0,9,0.18
2013-1-18,38.1,31.8,25.5,30.0,18.7,9.9,73,59,38,30.51,29.98,14,1,14,0.18
2013-1-19,52.8,40.3,26.2,30.9,25.5,16.4,72,56,41,30.44,29.94,24,4,24,0.18
2013-1-20,59.9,45.0,32.3,35.6,26.8,14.3,67,50,33,30.05,29.72,19,4,19,0.00
2013-1-21,37.9,31.9,26.9,24.3,17.5,11.8,79,56,42,30.11,29.83,9,0,9,0.00
2013-1-22,29.3,21.6,14.3,18.6,5.0,-1.3,71,49,38,30.23,29.84,71,1,71,0.04
2013-1-23,27.6,17.3,11.8,7.7,3.3,-1.8,74,54,38,30.28,30.17,5,0,5,0.00
2013-1-24,27.1,19.3,12.7,8.8,4.2,-0.1,76,53,32,30.42,30.13,16,0,16,0.00
2013-1-25,30.9,20.8,-4.0,16.6,7.8,-15.4,80,57,44,30.44,30.07,3,0,3,0.00
2013-1-26,31.6,22.6,14.1,16.8,10.8,6.8,81,62,45,30.39,30.05,86,0,86,0.02
2013-1-27,37.2,26.2,16.8,17.1,12.9,7.1,72,58,42,30.53,30.38,10,0,10,1.89
2013-1-28,36.6,32.0,10.5,32.7,25.8,2.7,86,78,69,30.51,30.01,8,0,8,0.10
2013-1-29,56.8,44.6,34.8,46.0,38.9,31.3,88,81,62,30.15,30.01,7,0,7,0.00
2013-1-30,62.7,53.4,45.1,55.9,49.0,42.3,91,85,72,30.07,29.40,22,2,22,0.02
2013-1-31,59.7,46.5,29.8,56.3,34.0,13.6,92,63,41,29.84,29.11,35,6,35,2.44
2013-2-1,37.7,29.4,23.1,18.9,13.2,7.9,64,51,35,30.26,29.84,20,2,20,0.43
2013-2-2,37.9,27.7,18.6,21.0,11.8,7.1,76,52,36,30.32,30.06,16,1,16,0.43
2013-2-3,37.5,29.1,23.7,25.8,21.8,19.0,83,74,61,30.06,29.80,6,0,6,2.48
2013-2-4,35.7,28.4,21.5,22.7,16.3,11.6,83,61,43,30.01,29.83,11,1,11,0.00
2013-2-5,35.7,33.2,28.7,31.6,28.1,21.5,86,82,74,29.98,29.88,5,0,5,0.02
2013-2-6,44.0,35.7,28.5,31.0,25.1,15.4,87,67,46,30.36,29.91,20,1,20,0.04
2013-2-7,39.9,32.1,25.1,33.0,19.7,-1.6,76,60,52,30.50,30.29,10,1,10,0.04
2013-2-8,41.5,37.6,30.3,38.1,34.1,27.4,91,87,76,30.30,29.60,27,4,27,1.16
2013-2-9,36.6,30.0,21.5,28.1,20.1,9.7,91,68,46,30.34,29.74,17,2,17,0.02
2013-2-10,39.2,27.9,16.8,26.1,17.1,8.6,81,65,42,30.50,30.33,5,0,5,0.14
2013-2-11,52.8,44.8,31.2,50.5,41.4,26.1,92,88,81,30.35,29.64,21,2,21,0.27
2013-2-12,50.7,42.0,32.1,41.9,29.6,23.5,88,63,43,29.98,29.74,17,2,17,0.04
2013-2-13,45.5,36.4,27.1,31.1,27.9,22.9,86,72,50,29.97,29.67,7,0,7,0.04
2013-2-14,49.6,39.9,32.7,39.1,32.7,29.2,89,76,54,30.03,29.69,11,0,11,0.12
2013-2-15,58.8,42.9,31.6,41.8,34.8,28.7,89,74,51,30.04,29.92,11,1,11,0.00
2013-2-16,43.7,38.2,32.5,33.1,28.7,19.2,82,69,57,29.95,29.72,110,2,110,0.04
2013-2-17,37.4,30.0,20.3,19.8,9.5,1.8,60,42,31,30.02,29.67,23,3,23,0.04
2013-2-18,29.3,23.7,20.1,17.1,8.3,2.2,62,52,45,30.24,30.02,13,0,13,0.00
2013-2-19,58.2,40.6,27.6,42.3,31.7,15.6,87,71,46,30.23,29.69,23,2,23,0.14
2013-2-20,41.1,33.2,25.5,29.1,16.6,10.7,69,51,38,30.01,29.74,20,3,20,4.40
2013-2-21,38.8,30.5,23.1,17.3,14.2,10.6,62,51,40,30.28,30.00,22,2,22,0.00
2013-2-22,40.6,33.9,24.9,34.4,24.3,14.1,81,68,57,30.39,30.26,7,0,7,4.40
2013-2-23,45.1,41.3,38.1,41.8,38.1,34.4,91,88,81,30.27,29.78,19,1,19,0.78
2013-2-24,52.8,41.5,32.1,41.2,32.7,21.7,91,72,49,29.99,29.74,20,2,20,0.00
2013-2-25,49.6,39.6,29.1,30.7,26.6,21.2,76,60,46,30.24,29.99,11,1,11,0.00
2013-2-26,48.7,38.6,29.1,37.6,31.8,24.9,90,77,62,30.28,29.83,17,2,17,0.27
2013-2-27,58.8,46.6,39.7,56.5,42.3,36.3,94,86,66,29.85,29.49,20,2,20,0.51
2013-2-28,57.9,45.2,36.6,42.7,35.6,28.8,87,70,49,29.64,29.56,10,1,10,0.00
2013-3-1,50.7,41.0,32.9,35.3,29.3,26.2,83,64,47,29.79,29.62,13,1,13,5.95
2013-3-2,46.2,36.6,30.7,26.7,24.3,21.8,69,61,47,29.79,29.74,11,1,11,0.00
2013-3-3,45.6,35.0,-16.7,24.8,20.5,-26.4,70,56,42,29.77,29.67,16,2,16,0.00
2013-3-4,45.5,36.2,26.9,24.0,20.0,14.1,66,52,41,29.92,29.77,22,2,22,0.00
2013-3-5,49.6,38.4,29.3,31.6,25.1,19.8,83,60,44,30.02,29.92,11,1,11,0.00
2013-3-6,41.0,39.1,36.1,36.0,33.4,30.9,86,80,75,29.97,29.75,28,7,28,0.17
2013-3-7,43.7,37.1,34.1,34.7,31.8,29.5,88,81,64,30.07,29.86,26,5,26,0.14
2013-3-8,40.8,36.6,32.9,33.5,31.3,29.5,88,81,69,30.16,29.99,21,2,21,0.26
2013-3-9,55.9,43.9,33.4,34.2,27.2,21.8,81,54,31,30.32,30.15,18,3,18,0.12
2013-3-10,47.3,38.6,30.0,41.6,31.7,26.5,89,77,63,30.39,30.31,10,0,10,6.52
2013-3-11,57.7,44.7,33.0,46.4,39.3,29.8,90,82,64,30.32,30.09,13,1,13,0.00
2013-3-12,54.8,50.3,46.2,52.5,46.9,39.1,92,88,76,30.11,29.68,16,3,16,7.36
2013-3-13,56.8,45.7,36.1,43.8,32.8,26.3,87,63,38,29.91,29.80,18,1,18,0.37
2013-3-14,45.8,39.1,33.0,26.3,17.9,12.3,66,43,33,29.97,29.87,23,3,23,0.00
2013-3-15,53.2,41.5,28.7,28.3,21.3,12.3,58,45,36,30.00,29.72,16,2,16,0.00
2013-3-16,42.6,37.3,33.6,30.7,27.5,22.8,85,68,50,29.92,29.77,5,0,5,7.38
2013-3-17,49.1,36.7,29.1,34.2,23.7,18.4,87,61,42,30.30,29.92,28,3,28,0.18
2013-3-18,41.5,35.3,30.3,36.1,25.4,15.2,90,68,51,30.38,29.96,12,2,12,8.09
2013-3-19,48.3,41.7,38.4,39.6,35.5,21.5,91,80,48,29.96,29.70,20,2,20,0.51
2013-3-20,53.2,42.2,30.5,29.7,22.6,18.8,65,47,33,29.91,29.80,19,2,19,0.00
2013-3-21,38.1,34.7,32.1,25.6,24.4,23.0,74,66,56,29.82,29.76,8,1,8,0.00
2013-3-24,39.0,39.0,39.0,25.5,25.5,25.5,58,58,58,29.75,29.75,0,0,0,0.00
2013-3-25,39.0,35.0,33.6,32.6,31.5,25.5,89,87,58,57.71,29.44,22,2,22,0.25
2013-3-26,58.8,47.5,32.7,46.6,33.6,28.2,91,60,43,29.87,29.59,14,1,14,0.10
2013-3-27,58.8,46.0,33.2,37.0,29.2,24.5,72,54,34,29.99,29.87,13,1,13,9.40
2013-3-28,55.9,47.8,37.2,34.4,30.7,28.3,70,52,41,30.12,29.98,15,1,15,0.00
2013-3-29,62.2,48.7,36.1,35.2,29.9,26.0,70,50,34,30.16,30.05,14,1,14,0.00
2013-3-30,64.5,47.5,34.7,38.4,31.5,27.0,74,56,29,30.18,30.08,13,1,13,0.00
2013-3-31,65.8,46.6,34.3,44.9,36.7,26.7,89,70,42,30.14,29.68,14,1,14,0.51
2013-4-1,71.7,53.7,39.0,52.7,40.2,17.3,90,63,41,29.91,29.62,22,2,22,0.00
2013-4-2,56.4,41.5,11.8,30.9,18.7,-4.5,69,41,29,30.10,29.91,22,2,22,0.00
2013-4-3,55.4,42.4,30.3,26.6,17.4,12.3,53,37,29,30.30,30.09,20,2,20,0.00
2013-4-4,58.1,42.5,28.9,30.0,23.4,12.1,63,48,30,30.40,30.11,17,1,17,0.00
2013-4-5,62.7,49.4,39.7,42.7,31.6,23.8,82,54,27,30.11,29.71,21,2,21,10.05
2013-4-6,57.3,43.0,34.3,26.7,22.9,17.2,73,46,29,30.33,29.99,18,2,18,0.14
2013-4-7,59.3,48.0,15.9,43.8,36.9,6.2,78,66,47,30.32,30.02,20,3,20,0.14
2013-4-8,71.7,58.3,49.1,50.8,45.1,7.2,80,63,43,30.09,29.98,13,2,13,0.14
2013-4-9,85.6,70.3,51.4,58.6,50.5,45.3,83,53,29,30.00,29.91,16,2,16,0.14
2013-4-10,70.3,59.6,51.9,55.2,48.8,40.5,89,68,46,29.95,29.77,20,2,20,0.33
2013-4-11,59.1,54.6,46.0,56.2,50.0,41.9,91,85,71,30.01,29.76,17,2,17,0.04
2013-4-12,46.0,43.8,42.6,43.1,41.4,40.4,93,91,84,30.00,29.68,23,4,23,1.08
2013-4-13,70.3,50.6,41.1,54.8,41.7,38.4,92,74,44,29.99,29.72,10,1,10,0.14
2013-4-14,71.9,53.0,41.5,53.1,38.9,32.2,91,63,34,30.21,29.98,17,1,17,0.00
2013-4-15,58.8,49.3,44.4,52.5,37.7,32.6,84,65,48,30.38,30.21,14,1,14,0.00
2013-4-16,70.3,57.6,45.8,53.7,48.8,9.8,86,74,52,30.37,30.14,23,3,23,0.00
2013-4-17,69.8,58.9,47.4,54.2,47.9,38.8,86,68,49,30.29,30.11,14,2,14,11.64
2013-4-18,60.9,53.7,44.6,52.6,46.2,38.9,90,76,58,30.35,30.10,12,2,12,0.00
2013-4-19,78.6,65.6,53.7,69.0,58.7,51.1,93,80,58,30.10,29.68,22,4,22,0.00
2013-4-20,65.1,55.8,47.3,61.1,39.8,27.4,87,58,37,30.29,29.68,15,3,15,0.00
2013-4-21,59.7,46.5,36.5,31.9,27.8,21.4,76,49,32,30.62,30.29,15,2,15,0.00
2013-4-22,57.2,46.0,38.3,38.8,35.5,30.8,79,67,48,30.64,30.47,22,4,22,0.00
2013-4-23,51.4,45.9,42.8,42.5,39.0,35.6,85,77,71,30.47,30.10,19,3,19,0.00
2013-4-24,76.6,56.0,39.9,52.7,45.8,36.0,87,71,42,30.11,29.85,18,2,18,0.00
2013-4-25,68.7,56.3,44.9,51.3,38.7,32.8,85,54,31,30.28,29.89,19,3,19,0.00
2013-4-26,75.0,55.7,40.2,43.6,37.6,33.1,83,54,30,30.39,30.27,10,1,10,0.00
2013-4-27,75.5,56.4,42.0,44.1,35.6,31.9,74,48,28,30.43,30.30,12,1,12,0.00
2013-4-28,78.0,57.4,41.7,52.0,38.9,7.5,81,53,32,30.33,30.22,16,2,16,0.00
2013-4-29,56.4,53.3,16.1,50.5,47.3,8.7,87,80,70,30.24,30.17,10,1,10,0.00
2013-4-30,68.9,55.4,46.5,54.3,45.8,40.0,87,71,57,30.34,30.18,14,1,14,0.00
2013-5-1,71.9,53.0,42.0,49.3,43.7,38.1,88,72,43,30.48,30.32,11,1,11,0.00
2013-5-2,73.4,56.1,42.4,54.7,43.4,39.3,90,65,45,30.47,30.34,10,1,10,0.00
2013-5-3,66.3,53.9,47.1,47.5,42.9,38.5,83,68,47,30.47,30.36,18,2,18,0.00
2013-5-4,73.4,53.7,42.9,53.3,43.4,39.3,89,69,46,30.37,30.26,14,2,14,0.00
2013-5-5,60.4,50.4,45.6,45.0,41.1,37.8,83,71,56,30.29,30.23,12,2,12,0.00
2013-5-6,62.7,53.0,48.0,49.5,46.2,38.8,88,78,62,30.27,30.17,11,1,11,0.00
2013-5-7,63.1,55.0,49.8,54.2,50.4,46.4,91,85,72,30.17,30.08,14,1,14,0.00
2013-5-8,70.1,60.0,55.0,62.4,55.3,50.4,93,85,69,30.09,29.96,16,2,16,1.41
2013-5-9,77.1,61.2,53.9,63.4,54.8,50.8,91,80,55,30.00,29.90,14,0,14,13.17
2013-5-10,89.4,68.1,54.1,65.3,56.7,51.2,91,70,40,30.00,29.89,13,1,13,13.17
2013-5-11,79.3,65.4,61.7,67.4,60.0,56.5,91,83,61,29.91,29.70,14,1,14,0.55
2013-5-12,79.1,63.1,49.8,61.1,47.2,30.7,92,60,33,29.96,29.67,18,2,18,0.06
2013-5-13,74.6,54.3,40.8,43.5,33.5,26.6,80,48,30,30.10,29.96,16,2,16,0.00
2013-5-14,71.2,54.1,38.4,40.7,35.1,29.6,78,52,28,30.14,30.04,12,1,12,0.00
2013-5-15,75.3,60.8,44.9,58.6,49.3,34.2,78,66,40,30.09,29.69,18,2,18,0.00
2013-5-16,79.7,69.5,59.3,61.8,53.9,46.7,84,60,36,29.85,29.70,14,1,14,0.00
2013-5-17,84.3,68.9,55.0,57.5,46.8,40.5,79,47,31,30.20,29.83,12,1,12,0.00
2013-5-18,70.3,58.8,16.5,55.0,51.0,11.1,85,76,58,30.32,30.20,11,0,11,13.80
2013-5-19,58.8,56.7,55.0,56.8,54.0,52.0,93,91,85,30.31,30.16,12,1,12,0.72
2013-5-20,78.4,67.6,57.9,69.8,62.5,55.9,93,85,69,30.17,29.98,8,0,8,14.54
2013-5-21,95.0,78.1,63.6,73.9,67.4,61.2,92,72,49,29.98,29.85,10,2,10,14.54
2013-5-22,87.4,73.1,64.9,74.3,66.1,60.1,90,79,61,29.93,29.83,14,1,14,0.00
2013-5-23,93.0,74.8,65.6,73.2,66.2,61.8,88,76,52,29.91,29.77,22,3,22,0.22
2013-5-24,75.0,59.7,46.7,67.9,54.6,42.0,91,83,72,29.97,29.69,15,2,15,0.14
2013-5-25,61.7,52.9,45.1,48.6,42.2,31.4,88,68,47,30.03,29.91,25,4,25,0.04
2013-5-26,82.9,61.0,45.8,49.8,39.6,35.3,73,48,31,30.21,29.99,19,2,19,0.04
2013-5-27,82.9,64.3,43.8,53.0,43.8,39.2,85,52,27,30.26,30.13,12,1,12,0.04
2013-5-28,82.4,60.9,51.9,58.1,52.4,43.9,90,75,39,30.24,30.11,14,0,14,15.44
2013-5-29,86.9,71.7,57.5,69.4,62.1,54.9,91,74,50,30.13,30.02,17,1,17,14.94
2013-5-30,98.7,82.9,70.1,73.5,67.3,63.7,81,62,38,30.14,30.06,11,2,11,14.94
2013-5-31,100.0,82.7,69.8,75.3,68.0,64.5,85,63,41,30.14,30.01,10,1,10,14.94
2013-6-1,98.4,81.9,67.8,73.2,67.8,62.5,84,65,41,30.04,29.92,15,2,15,14.94
2013-6-2,97.5,80.1,70.1,73.8,68.3,64.5,86,69,44,29.94,29.81,19,3,19,14.94
2013-6-3,76.2,69.7,67.1,72.0,66.2,57.6,91,89,78,29.87,29.80,11,1,11,0.57
2013-6-4,81.6,69.6,57.3,63.9,51.5,46.5,90,55,35,30.10,29.87,15,2,15,0.57
2013-6-5,84.9,65.2,53.4,56.6,51.7,-28.6,87,64,34,30.21,30.10,12,1,12,0.57
2013-6-6,79.3,64.9,58.2,64.3,58.3,55.0,90,80,57,30.14,29.99,28,1,28,16.23
2013-6-7,67.6,63.6,61.1,65.6,61.1,57.6,94,92,89,30.00,29.56,13,1,13,4.08
2013-6-8,87.2,72.1,58.8,70.7,63.6,56.5,94,76,53,30.05,29.52,28,2,28,0.30
2013-6-9,86.3,73.4,61.5,67.3,61.4,57.9,88,68,44,30.18,30.05,12,1,12,20.61
2013-6-10,69.0,66.5,64.5,66.9,62.9,60.5,93,88,80,30.16,29.82,14,1,14,23.29
2013-6-11,89.2,77.4,68.1,74.2,67.4,60.3,94,73,53,29.82,29.64,14,2,14,2.55
2013-6-12,82.6,72.4,64.2,60.6,57.6,-28.6,76,61,45,29.85,29.73,10,1,10,0.00
2013-6-13,71.9,66.1,60.6,65.4,60.0,53.9,90,81,67,29.85,29.41,18,2,18,0.84
2013-6-14,73.2,62.6,55.5,57.7,54.9,51.4,90,77,56,29.89,29.46,21,2,21,0.04
2013-6-15,87.6,79.3,59.7,64.9,58.6,53.3,84,50,40,30.02,29.93,11,1,11,0.04
2013-6-16,88.7,73.6,60.9,70.1,61.6,54.7,83,67,47,30.01,29.80,15,2,15,0.04
2013-6-17,94.8,77.4,65.4,73.5,66.4,61.6,89,71,47,29.93,29.83,39,1,39,0.24
2013-6-18,83.3,69.5,64.0,69.5,63.7,50.7,90,83,61,29.91,29.80,17,0,17,0.51
2013-6-19,86.3,70.0,59.9,65.7,57.3,50.5,90,67,41,30.17,29.85,12,1,12,0.02
2013-6-20,88.1,71.3,56.8,66.1,56.1,47.1,88,61,38,30.28,30.16,18,1,18,0.02
2013-6-21,89.4,71.9,58.2,64.9,56.1,53.3,86,60,37,30.32,30.25,13,1,13,0.02
2013-6-22,90.3,73.2,58.6,68.4,59.3,0.0,88,64,39,30.27,30.15,14,1,14,24.96
2013-6-23,95.7,77.6,63.1,72.7,65.9,54.3,89,69,44,30.21,30.08,12,1,12,25.00
2013-6-24,98.7,82.6,71.2,79.0,70.5,64.1,92,69,47,30.09,29.97,14,2,14,0.02
2013-6-25,99.3,83.7,68.1,76.6,69.1,62.2,86,63,46,30.01,29.83,31,2,31,0.00
2013-6-26,97.5,83.2,68.9,72.6,68.2,46.1,89,63,43,29.87,29.78,12,2,12,25.69
2013-6-27,93.9,78.3,70.8,79.8,70.9,67.9,91,79,56,29.82,29.59,57,2,57,0.02
2013-6-28,94.1,81.2,71.7,76.5,70.5,65.8,88,72,53,29.60,29.49,12,2,12,25.74
2013-6-29,92.1,75.8,67.6,75.1,68.5,64.1,90,79,53,29.71,29.50,15,1,15,0.06
2013-6-30,91.9,76.1,68.5,78.4,70.0,65.4,91,82,59,29.91,29.71,8,1,8,25.86
2013-7-1,92.4,75.5,70.5,77.6,70.6,-23.3,91,85,61,30.06,29.90,11,1,11,0.12
2013-7-2,84.3,76.2,71.4,75.2,71.2,68.3,91,85,71,30.20,30.05,14,1,14,0.08
2013-7-3,95.5,78.3,69.8,79.0,71.8,67.1,91,81,57,30.26,30.17,9,1,9,0.89
2013-7-4,95.9,82.6,72.8,81.2,73.5,69.5,92,75,55,30.27,30.17,24,2,24,26.96
2013-7-5,101.1,85.4,71.4,79.9,72.6,67.7,89,68,47,30.23,30.11,21,2,21,0.00
2013-7-6,100.9,87.9,74.1,80.6,74.0,70.3,89,66,48,30.16,30.05,25,2,25,0.00
2013-7-7,101.1,92.1,78.4,78.4,74.2,67.8,70,57,46,30.05,8.81,11,2,11,26.96
2013-7-8,96.6,81.8,71.2,75.5,69.6,65.4,84,68,48,30.06,29.99,14,1,14,0.00
2013-7-9,98.2,82.4,69.6,77.1,70.3,65.1,88,69,48,30.08,30.00,13,1,13,26.96
2013-7-10,96.6,84.2,71.7,79.1,73.3,-29.2,85,71,54,30.03,29.82,14,2,14,26.96
2013-7-11,87.0,79.1,75.3,76.5,71.7,68.0,88,79,61,29.91,29.82,10,1,10,0.08
2013-7-12,80.2,72.5,68.7,68.4,66.3,48.2,92,81,66,30.07,29.90,17,2,17,0.37
2013-7-13,88.3,77.1,69.9,78.4,72.0,67.5,93,85,68,30.29,30.06,11,1,11,0.00
2013-7-14,96.6,82.9,73.0,79.2,73.6,70.2,92,75,55,30.34,30.25,11,1,11,0.00
2013-7-15,100.5,87.0,73.5,79.3,73.8,69.8,89,67,47,30.26,30.12,8,1,8,0.00
2013-7-16,99.3,86.1,75.2,76.4,69.9,66.1,81,61,40,30.19,30.12,7,1,7,0.00
2013-7-17,100.5,85.3,73.0,78.4,70.2,7.7,83,63,4,30.19,30.08,11,1,11,27.41
2013-7-18,103.8,88.4,75.9,80.1,73.8,67.8,80,63,44,30.08,29.95,8,1,8,0.00
2013-7-19,104.3,90.6,78.6,82.5,76.3,72.0,86,65,46,29.99,29.81,15,2,15,27.41
2013-7-20,98.7,86.5,33.4,78.0,73.0,20.6,78,65,49,29.85,29.74,15,2,15,27.41
2013-7-21,90.3,78.5,73.5,74.4,69.5,64.8,89,75,51,29.95,29.83,12,1,12,27.41
2013-7-22,86.3,77.6,74.1,77.0,73.5,70.7,93,87,74,29.95,29.79,14,1,14,27.63
2013-7-23,92.4,81.7,72.3,82.1,73.5,69.8,94,78,60,29.80,29.57,10,1,10,27.96
2013-7-24,93.9,80.2,71.2,73.8,67.8,58.5,87,67,49,29.90,29.62,11,1,11,0.33
2013-7-25,71.7,66.8,65.1,59.7,57.9,55.8,82,73,63,30.03,29.90,28,2,28,0.33
2013-7-26,84.3,73.0,64.9,67.3,63.1,59.1,84,72,55,30.06,29.98,10,1,10,0.00
2013-7-27,92.4,75.0,64.7,73.3,65.4,61.3,90,74,46,30.06,29.96,11,1,11,0.33
2013-7-28,84.2,73.4,65.1,73.0,67.5,62.1,91,82,64,30.00,29.92,14,1,14,28.16
2013-7-29,89.7,77.7,67.6,76.1,66.3,50.7,92,70,49,30.10,29.94,11,1,11,0.08
2013-8-3,72.7,72.7,72.7,64.3,64.3,64.3,75,75,75,29.89,29.89,0,0,0,0.00
2013-8-7,83.4,74.5,68.5,69.3,65.6,61.9,85,74,59,30.15,29.89,14,2,14,29.26
2013-8-8,88.5,75.6,70.8,76.6,70.5,66.9,91,85,67,30.08,30.01,14,1,14,29.26
2013-8-9,90.1,79.8,72.8,77.9,73.6,69.7,92,82,65,30.03,29.82,19,1,19,29.26
2013-8-10,87.6,78.6,69.9,74.7,67.5,63.1,91,71,50,30.05,29.86,11,1,11,29.26
2013-8-11,86.9,73.5,64.0,67.5,61.9,58.3,86,69,47,30.13,30.03,11,1,11,29.26
2013-8-12,87.0,74.2,67.8,73.4,67.6,64.1,90,80,63,30.04,29.93,14,0,14,0.00
2013-8-13,77.0,71.6,68.1,71.8,68.2,42.3,94,89,79,29.94,29.72,57,1,57,1.55
2013-8-14,77.7,69.4,61.5,67.4,56.5,52.0,91,65,46,30.05,29.74,16,1,16,0.00
2013-8-15,84.5,68.6,56.1,60.3,54.0,50.0,80,62,36,30.15,30.05,11,0,11,0.00
2013-8-19,69.6,67.9,67.2,62.5,61.8,61.5,82,81,78,30.08,30.07,3,0,3,0.00
2013-8-20,91.0,76.2,64.5,72.7,65.9,60.9,89,72,49,30.14,30.06,12,0,12,0.00
2013-8-21,95.9,79.2,67.2,74.2,68.2,63.5,89,71,41,30.18,30.07,10,1,10,0.00
2013-8-22,90.1,75.9,70.5,74.8,69.1,60.6,89,80,59,30.08,29.89,12,1,12,0.08
2013-8-23,85.8,74.9,66.0,72.6,63.9,58.0,90,71,45,30.08,29.88,14,0,14,0.00
2013-8-24,81.3,69.4,59.7,68.3,60.4,56.4,97,76,48,30.35,30.08,111,4,111,0.00
2013-8-25,86.5,71.1,57.3,81.2,63.2,52.0,98,80,44,30.41,30.27,110,7,110,0.00
2013-8-26,88.5,78.8,73.9,66.9,64.4,62.8,74,62,49,30.05,12.36,14,2,14,0.00
2013-8-27,89.7,79.1,70.3,73.6,67.8,64.9,85,69,54,29.93,29.84,12,1,12,0.02
2013-8-28,80.2,74.9,71.4,71.2,69.4,68.0,90,83,73,29.89,29.84,4,0,4,0.02
2013-8-29,79.3,72.5,69.4,69.3,66.7,64.2,93,83,68,30.04,29.87,13,1,13,0.02
2013-8-30,88.8,76.6,68.7,72.2,67.5,63.8,86,74,57,30.03,29.88,20,1,20,0.02
2013-8-31,95.1,79.6,69.0,76.5,70.7,-17.3,90,75,54,29.90,29.80,23,2,23,0.02
2013-9-1,89.9,78.5,71.9,77.7,72.0,68.4,91,81,63,29.87,29.80,21,1,21,0.10
2013-9-2,80.4,75.0,70.3,76.3,71.5,67.4,92,89,79,29.81,29.72,28,0,28,0.12
2013-9-3,85.1,75.0,66.3,77.9,67.0,57.9,94,78,56,29.89,29.72,12,1,12,0.02
2013-9-4,84.0,72.5,61.5,66.1,58.9,56.6,85,64,44,30.02,29.89,30,1,30,0.02
2013-9-5,83.8,70.7,58.2,65.5,57.1,46.9,84,63,44,30.13,29.95,17,1,17,0.02
2013-9-6,75.9,63.3,54.3,57.1,49.2,45.4,79,61,48,30.26,30.13,61,1,61,0.02
2013-9-7,80.9,66.3,51.0,61.8,52.9,46.2,86,64,37,30.14,29.92,12,1,12,0.02
2013-9-8,87.6,73.5,63.8,68.0,59.8,49.0,85,63,50,30.07,29.82,14,1,14,0.02
2013-9-9,79.7,68.8,61.8,59.6,53.7,47.5,78,59,45,30.24,30.07,12,1,12,0.02
2013-9-10,89.7,77.7,67.1,74.0,68.2,59.5,82,73,59,30.19,30.05,18,2,18,0.02
2013-9-11,97.8,82.9,72.8,79.2,72.3,68.4,89,72,53,30.13,29.99,12,1,12,0.02
2013-9-12,94.2,79.5,71.2,76.4,71.0,67.1,88,76,55,30.01,12.54,14,1,14,0.49
2013-9-13,81.8,72.7,59.7,72.6,63.3,49.5,92,74,55,29.86,29.64,14,1,14,0.12
2013-9-14,74.3,61.5,52.3,55.6,49.4,46.0,83,66,47,30.13,29.85,57,1,57,0.12
2013-9-15,76.8,62.4,48.7,55.4,50.2,43.5,84,66,44,30.23,30.09,10,1,10,0.12
2013-9-16,69.0,63.1,58.8,61.1,56.3,51.6,86,79,65,30.21,30.04,13,0,13,0.12
2013-9-17,64.7,57.1,48.5,52.3,43.6,39.0,83,62,46,30.43,30.21,13,1,13,0.00
2013-9-18,73.9,58.4,46.5,53.5,47.6,41.6,85,69,46,30.36,30.20,13,1,13,0.12
2013-9-19,78.6,63.0,49.8,59.9,52.4,46.1,89,70,45,30.21,30.09,10,1,10,0.12
2013-9-20,81.1,66.5,53.9,63.1,56.1,50.2,89,71,49,30.10,30.01,10,1,10,0.12
2013-9-22,55.6,54.8,53.7,45.2,44.1,43.1,68,67,66,29.91,13.29,4,0,4,395.27
2013-9-23,68.5,57.3,46.4,48.6,44.2,40.2,80,63,45,30.04,29.91,10,1,10,0.00
2013-9-24,70.5,58.3,44.9,50.6,46.3,40.4,85,66,47,30.06,29.89,11,1,11,0.00
2013-9-25,72.8,60.2,48.5,54.3,49.9,39.4,86,70,52,29.96,29.89,8,0,8,0.00
2013-9-26,74.3,61.0,50.5,61.6,54.2,47.4,90,79,64,30.10,29.94,9,0,9,0.00
2013-9-27,71.4,62.8,53.4,60.3,54.0,49.7,90,74,56,30.26,30.09,14,1,14,0.00
2013-9-28,73.4,64.8,56.3,59.8,54.3,51.6,85,70,53,30.32,30.23,9,1,9,0.00
2013-9-29,72.3,61.0,52.8,60.5,52.7,48.7,91,75,58,30.23,30.08,9,0,9,0.00
2013-9-30,73.2,60.7,50.9,59.9,52.8,0.0,91,77,51,30.08,29.99,8,0,8,0.00
2013-10-1,82.7,67.3,54.5,62.6,56.9,50.8,89,71,48,30.02,29.91,7,0,7,0.00
2013-10-2,84.5,71.3,58.8,65.1,60.0,54.6,86,69,51,30.02,29.93,14,1,14,0.00
2013-10-3,80.0,69.1,60.4,63.5,57.6,54.3,85,68,45,30.13,30.02,14,2,14,0.00
2013-10-4,88.3,72.5,59.7,69.4,62.5,55.8,89,72,50,30.08,29.98,14,1,14,0.00
2013-10-5,73.2,68.0,64.5,65.4,62.9,61.3,91,84,74,30.09,30.00,28,1,28,0.00
2013-10-6,72.1,67.8,65.1,67.7,65.1,62.2,93,91,85,30.09,30.03,14,1,14,0.00
2013-10-7,79.7,69.5,60.9,70.9,65.2,56.0,93,86,72,30.03,29.81,22,2,22,0.12
2013-10-8,68.3,59.9,51.6,56.0,48.7,0.0,84,68,49,30.30,30.01,10,1,10,0.00
2013-10-9,63.6,60.5,59.1,52.2,50.4,48.6,74,69,64,30.35,30.25,18,2,18,0.00
2013-10-10,62.9,59.8,56.1,58.8,55.2,8.6,89,85,73,30.26,30.03,16,2,16,0.19
2013-10-11,64.2,62.3,60.9,60.7,58.8,57.0,91,88,84,30.06,29.98,15,2,15,0.63
2013-10-12,69.6,63.2,60.9,58.4,55.0,15.8,85,75,60,30.25,30.04,27,2,27,0.19
2013-10-13,65.6,60.2,57.3,55.4,52.3,48.7,83,75,64,30.37,30.24,15,2,15,0.19
2013-10-14,66.2,58.1,50.1,53.5,50.2,46.7,89,75,63,30.36,30.26,14,0,14,0.19
2013-10-15,67.1,57.5,48.0,57.3,51.2,45.5,92,81,61,30.27,30.10,14,0,14,0.19
2013-10-16,68.5,62.7,58.8,59.3,57.6,55.3,89,84,72,30.11,29.93,7,0,7,0.00
2013-10-17,74.5,64.2,60.4,65.5,59.9,57.2,91,86,69,29.93,29.71,7,1,7,0.00
2013-10-18,68.7,60.8,50.5,61.6,49.9,41.8,89,68,49,30.00,29.71,13,2,13,0.00
2013-10-19,65.8,55.6,45.1,54.7,48.1,-5.8,88,77,60,30.00,29.77,14,1,14,0.00
2013-10-20,63.5,54.6,45.6,54.9,43.2,37.2,88,67,45,30.08,29.77,14,1,14,0.00
2013-10-21,68.3,49.2,42.6,47.5,41.4,38.4,86,76,46,30.16,30.08,5,0,5,0.00
2013-10-22,67.8,67.8,67.8,46.3,46.3,46.3,46,46,46,0.00,40.00,0,0,0,0.00